Aviation Digital Data Service (ADDS)

Output produced by METARs form (1912 UTC 22 May 2019)
found at http://aviationweather.gov/metar/data/
 
METAR text: EHGG 221855Z AUTO 30005KT 9999 NSC 13/04 Q1019 NOSIG
Conditions at: EHGG (GRONINGEN/EELDE , NL) observed 1855 UTC 22 May 2019
Temperature: 13.0°C (55°F)
Dewpoint: 4.0°C (39°F) [RH = 54%]
Pressure (altimeter): 30.09 inches Hg (1019.0 mb)
Winds: from the WNW (300 degrees) at 6 MPH (5 knots; 2.6 m/s)
Visibility: 6 or more miles (10+ km)
Ceiling: at least 12,000 feet AGL
Clouds: sky clear below 12,000 feet AGL
Weather: no significant weather observed at this time

METAR text: EHGG 221825Z AUTO 29008KT 250V320 9999 NCD 14/04 Q1019 NOSIG
Conditions at: EHGG (GRONINGEN/EELDE , NL) observed 1825 UTC 22 May 2019
Temperature: 14.0°C (57°F)
Dewpoint: 4.0°C (39°F) [RH = 51%]
Pressure (altimeter): 30.09 inches Hg (1019.0 mb)
Winds: from the WNW (290 degrees) at 9 MPH (8 knots; 4.1 m/s)
Visibility: 6 or more miles (10+ km)
Ceiling: at least 12,000 feet AGL
Clouds: sky clear below 12,000 feet AGL
Weather: no significant weather observed at this time

Forecast for: EHGG (GRONINGEN/EELDE , NL)
Text: TAF EHGG 221645Z 2218/2324 28009KT CAVOK
Forecast period: 1800 UTC 22 May 2019 to 0000 UTC 24 May 2019
Forecast type: FROM: standard forecast or significant change
Winds: from the W (280 degrees) at 10 MPH (9 knots; 4.6 m/s)
Visibility: 6 or more miles 10+ km)
Ceiling: unknown
Clouds: missing
Weather: NSW  (no significant weather)
Text: BECMG 2218/2220 VRB03KT
Forecast period: 1800 UTC 22 May 2019 to 0400 UTC 23 May 2019
Forecast type: BECOMING: Conditions expected to become as follows by 2000 UTC 22 May 2019
Winds: variable direction winds at 3 MPH (3 knots; 1.5 m/s)
Visibility: 6 or more miles 10+ km)
Ceiling: unknown
Clouds: missing
Weather: NSW  (no significant weather)
Text: PROB30 2223/2304 5000 MIFG
Forecast period: 2300 UTC 22 May 2019 to 0400 UTC 23 May 2019
Forecast type: PROBABLE: 30 percent likelihood of the following during this time
Visibility: 3 miles (5 km)
Ceiling: unknown
Clouds: missing
Weather: MIFG  (shallow fog)
Text: BECMG 2304/2307 21010KT
Forecast period: 0400 to 1800 UTC 23 May 2019
Forecast type: BECOMING: Conditions expected to become as follows by 0700 UTC 23 May 2019
Winds: from the SSW (210 degrees) at 12 MPH (10 knots; 5.1 m/s)
Visibility: 6 or more miles 10+ km)
Ceiling: unknown
Clouds: missing
Weather: NSW  (no significant weather)
Text: BECMG 2318/2320 VRB03KT
Forecast period: 1800 UTC 23 May 2019 to 0000 UTC 24 May 2019
Forecast type: BECOMING: Conditions expected to become as follows by 2000 UTC 23 May 2019
Winds: variable direction winds at 3 MPH (3 knots; 1.5 m/s)
Visibility: 6 or more miles 10+ km)
Ceiling: unknown
Clouds: missing
Weather: NSW  (no significant weather)